Time;durP1;ratioP1;P1;durP2;ratioP2;P2;SDS_P1;SDS_P2;PMS_P1;PMS_P2;Temp;Humidity;BMP_temperature;BMP_pressure;BME280_temperature;BME280_humidity;BME280_pressure;Samples;Min_cycle;Max_cycle;Signal;HPM_P1;HPM_P2
2021/10/25 00:00:09;;;;;;;21.00;12.10;;;5.20;99.90;;;;;;5083660;28;20233;-71
2021/10/25 00:02:37;;;;;;;18.40;12.17;;;5.20;99.90;;;;;;5073658;28;20221;-71
2021/10/25 00:05:04;;;;;;;23.07;12.67;;;5.20;99.90;;;;;;5077827;28;20211;-71
2021/10/25 00:07:31;;;;;;;20.43;12.27;;;5.10;99.90;;;;;;5093801;28;20240;-72
2021/10/25 00:10:00;;;;;;;18.97;12.67;;;5.10;99.90;;;;;;5093791;28;20616;-71
2021/10/25 00:12:27;;;;;;;21.73;13.07;;;5.10;99.90;;;;;;5087172;28;20580;-72
2021/10/25 00:14:54;;;;;;;18.63;11.93;;;5.10;99.90;;;;;;5079876;28;20204;-71
2021/10/25 00:17:22;;;;;;;17.80;11.60;;;5.10;99.90;;;;;;5089469;28;20208;-72
2021/10/25 00:19:48;;;;;;;20.23;11.03;;;5.00;99.90;;;;;;5073910;28;20205;-71
2021/10/25 00:22:15;;;;;;;21.50;12.07;;;5.10;99.90;;;;;;5074189;28;20704;-72
2021/10/25 00:24:42;;;;;;;18.63;11.77;;;5.10;99.90;;;;;;5074003;28;20211;-71
2021/10/25 00:27:11;;;;;;;20.17;12.90;;;5.10;99.90;;;;;;5094040;28;20205;-71
2021/10/25 00:29:38;;;;;;;16.87;11.23;;;5.10;99.90;;;;;;5094330;28;20287;-71
2021/10/25 00:32:06;;;;;;;18.97;10.90;;;5.10;99.90;;;;;;5092483;28;20620;-72
2021/10/25 00:34:33;;;;;;;17.13;11.33;;;5.10;99.90;;;;;;5078526;28;20233;-71
2021/10/25 00:37:02;;;;;;;16.77;11.40;;;5.10;99.90;;;;;;5073802;28;20209;-72
2021/10/25 00:39:30;;;;;;;16.37;11.07;;;5.10;99.90;;;;;;5074055;28;20300;-72
2021/10/25 00:41:56;;;;;;;21.37;11.87;;;5.10;99.90;;;;;;5074011;28;20227;-71
2021/10/25 00:44:25;;;;;;;17.63;11.73;;;5.10;99.90;;;;;;5087947;28;20268;-71
2021/10/25 00:46:52;;;;;;;16.90;11.33;;;5.10;99.90;;;;;;5076302;28;20611;-71
2021/10/25 00:49:19;;;;;;;17.20;10.83;;;5.10;99.90;;;;;;5088833;28;20213;-72
2021/10/25 00:51:46;;;;;;;20.33;11.63;;;5.00;99.90;;;;;;5086086;28;20219;-71
2021/10/25 00:54:13;;;;;;;17.70;10.30;;;5.00;99.90;;;;;;5081756;28;20229;-71
2021/10/25 00:56:43;;;;;;;17.97;11.23;;;5.00;99.90;;;;;;5085245;28;20224;-71
2021/10/25 00:59:10;;;;;;;18.43;10.93;;;5.00;99.90;;;;;;5082041;28;20534;-71
2021/10/25 01:01:39;;;;;;;20.40;11.57;;;5.00;99.90;;;;;;5073720;28;20209;-71
2021/10/25 01:04:09;;;;;;;21.80;11.77;;;4.90;99.90;;;;;;5088990;28;20208;-71
2021/10/25 01:06:36;;;;;;;20.17;11.00;;;4.90;99.90;;;;;;5079042;28;20208;-71
2021/10/25 01:09:03;;;;;;;19.50;11.17;;;4.90;99.90;;;;;;5073396;28;20228;-71
2021/10/25 01:11:31;;;;;;;19.30;11.70;;;4.90;99.90;;;;;;5073349;28;20205;-72
2021/10/25 01:13:58;;;;;;;19.33;11.87;;;4.90;99.90;;;;;;5082787;28;20214;-72
2021/10/25 01:16:26;;;;;;;18.37;11.53;;;4.90;99.90;;;;;;5079812;28;20300;-72
2021/10/25 01:18:56;;;;;;;19.83;11.67;;;4.80;99.90;;;;;;5073423;28;20554;-72
2021/10/25 01:21:24;;;;;;;17.87;11.73;;;4.90;99.90;;;;;;5074598;28;20232;-72
2021/10/25 01:23:51;;;;;;;19.77;12.07;;;4.90;99.90;;;;;;5085661;28;20537;-72
2021/10/25 01:26:21;;;;;;;19.53;11.20;;;4.90;99.90;;;;;;5085189;28;20231;-70
2021/10/25 01:28:48;;;;;;;17.40;11.60;;;4.90;99.90;;;;;;5093375;28;20661;-72
2021/10/25 01:31:15;;;;;;;17.97;11.10;;;4.90;99.90;;;;;;5093641;28;20291;-71
2021/10/25 01:33:44;;;;;;;19.83;11.93;;;4.90;99.90;;;;;;5086551;28;20572;-71
2021/10/25 01:36:12;;;;;;;18.97;11.73;;;4.90;99.90;;;;;;5076181;28;20691;-72
2021/10/25 01:38:40;;;;;;;20.70;12.40;;;4.90;99.90;;;;;;5092804;28;20300;-71
2021/10/25 01:41:07;;;;;;;19.00;11.47;;;4.90;99.90;;;;;;5092551;28;20682;-71
2021/10/25 01:43:35;;;;;;;18.87;11.47;;;4.90;99.90;;;;;;5082606;28;20710;-71
2021/10/25 01:46:02;;;;;;;16.87;11.20;;;4.80;99.90;;;;;;5083811;28;20206;-72
2021/10/25 01:48:29;;;;;;;19.20;10.90;;;4.80;99.90;;;;;;5073072;28;20220;-71
2021/10/25 01:50:55;;;;;;;19.67;12.13;;;4.80;99.90;;;;;;5079054;28;20331;-71
2021/10/25 01:53:23;;;;;;;18.23;10.30;;;4.80;99.90;;;;;;5075909;28;20204;-71
2021/10/25 01:55:55;;;;;;;19.87;11.27;;;4.80;99.90;;;;;;5092730;28;20292;-70
2021/10/25 01:58:22;;;;;;;19.27;10.70;;;4.80;99.90;;;;;;5093131;28;20238;-71
2021/10/25 02:00:50;;;;;;;17.13;10.67;;;4.80;99.90;;;;;;5092914;28;20240;-71
2021/10/25 02:03:17;;;;;;;16.43;10.43;;;4.80;99.90;;;;;;5089351;28;20770;-71
2021/10/25 02:05:44;;;;;;;20.10;11.73;;;4.80;99.90;;;;;;5079256;28;20209;-71
2021/10/25 02:08:11;;;;;;;15.27;10.37;;;4.80;99.90;;;;;;5092661;28;20287;-70
2021/10/25 02:10:38;;;;;;;17.57;11.17;;;4.80;99.90;;;;;;5093198;28;20223;-71
2021/10/25 02:13:10;;;;;;;17.20;10.50;;;4.80;99.90;;;;;;5090629;28;20241;-70
2021/10/25 02:15:37;;;;;;;20.00;10.33;;;4.80;99.90;;;;;;5087294;28;20203;-70
2021/10/25 02:18:05;;;;;;;15.43;10.33;;;4.90;99.90;;;;;;5082010;28;20292;-71
2021/10/25 02:20:32;;;;;;;14.97;9.43;;;4.90;99.90;;;;;;5088855;28;20212;-71
2021/10/25 02:22:58;;;;;;;17.97;10.17;;;4.90;99.90;;;;;;5092678;28;20584;-71
2021/10/25 02:25:26;;;;;;;16.73;10.43;;;4.90;99.90;;;;;;5075744;28;20445;-72
2021/10/25 02:27:52;;;;;;;17.37;10.23;;;4.80;99.90;;;;;;5092623;28;20292;-71
2021/10/25 02:30:21;;;;;;;16.30;10.97;;;4.80;99.90;;;;;;5091684;28;20217;-72
2021/10/25 02:32:48;;;;;;;18.23;10.90;;;4.90;99.90;;;;;;5093282;28;20211;-72
2021/10/25 02:35:15;;;;;;;16.83;10.30;;;4.90;99.90;;;;;;5091197;28;20215;-72
2021/10/25 02:37:42;;;;;;;17.33;10.67;;;4.80;99.90;;;;;;5072595;28;20291;-71
2021/10/25 02:40:10;;;;;;;18.87;11.20;;;4.90;99.90;;;;;;5084477;28;20196;-71
2021/10/25 02:42:37;;;;;;;18.93;11.40;;;4.90;99.90;;;;;;5082950;28;20225;-71
2021/10/25 02:45:04;;;;;;;15.70;10.60;;;4.90;99.90;;;;;;5089050;28;20222;-71
2021/10/25 02:47:32;;;;;;;17.60;11.17;;;4.90;99.90;;;;;;5091138;28;20207;-71
2021/10/25 02:50:00;;;;;;;17.90;10.77;;;4.90;99.90;;;;;;5090505;28;20217;-71
2021/10/25 02:52:26;;;;;;;18.40;10.63;;;4.90;99.90;;;;;;5091762;28;20260;-71
2021/10/25 02:54:53;;;;;;;18.23;11.10;;;4.90;99.90;;;;;;5072898;28;20223;-71
2021/10/25 02:57:20;;;;;;;19.40;11.63;;;4.90;99.90;;;;;;5085979;28;20220;-70
2021/10/25 02:59:47;;;;;;;18.23;11.73;;;4.90;99.90;;;;;;5072898;28;20244;-71
2021/10/25 03:02:14;;;;;;;19.63;12.53;;;4.80;99.90;;;;;;5080228;28;20613;-71
2021/10/25 03:04:42;;;;;;;21.50;12.53;;;4.80;99.90;;;;;;5084906;28;20489;-71
2021/10/25 03:07:09;;;;;;;17.73;12.03;;;4.80;99.90;;;;;;5072013;28;20209;-71
2021/10/25 03:09:36;;;;;;;18.43;12.23;;;4.80;99.90;;;;;;5071845;28;20212;-70
2021/10/25 03:12:04;;;;;;;18.23;11.40;;;4.80;99.90;;;;;;5072104;28;20296;-71
2021/10/25 03:14:31;;;;;;;21.00;12.40;;;4.80;99.90;;;;;;5081413;28;20650;-70
2021/10/25 03:16:58;;;;;;;22.47;12.80;;;4.80;99.90;;;;;;5073394;28;20232;-70
2021/10/25 03:19:25;;;;;;;22.13;13.97;;;4.80;99.90;;;;;;5081598;28;20577;-72
2021/10/25 03:21:54;;;;;;;22.47;13.27;;;4.80;99.90;;;;;;5076746;28;20666;-71
2021/10/25 03:24:21;;;;;;;18.97;12.80;;;4.80;99.90;;;;;;5073947;28;20243;-71
2021/10/25 03:26:47;;;;;;;17.93;11.83;;;4.80;99.90;;;;;;5077625;28;20229;-72
2021/10/25 03:29:15;;;;;;;16.80;11.40;;;4.90;99.90;;;;;;5071952;28;20621;-72
2021/10/25 03:31:42;;;;;;;19.83;11.77;;;4.90;99.90;;;;;;5077530;28;20212;-72
2021/10/25 03:34:09;;;;;;;19.13;12.07;;;4.80;99.90;;;;;;5082545;28;20197;-72
2021/10/25 03:36:38;;;;;;;18.73;12.50;;;4.80;99.90;;;;;;5086742;28;20201;-71
2021/10/25 03:39:07;;;;;;;18.83;12.60;;;4.90;99.90;;;;;;5094745;28;20594;-71
2021/10/25 03:41:37;;;;;;;19.63;12.90;;;4.90;99.90;;;;;;5085212;28;20205;-70
2021/10/25 03:44:09;;;;;;;17.33;11.10;;;4.80;99.90;;;;;;5073518;28;20229;-66
2021/10/25 03:46:41;;;;;;;17.70;11.30;;;4.90;99.90;;;;;;5078894;28;20262;-66
2021/10/25 03:49:12;;;;;;;20.00;10.53;;;4.90;99.90;;;;;;5090542;28;20207;-67
2021/10/25 03:51:41;;;;;;;23.17;12.40;;;4.80;99.90;;;;;;5089000;28;20197;-66
2021/10/25 03:54:23;;;;;;;18.73;12.43;;;4.80;99.90;;;;;;5083916;28;20564;-67
2021/10/25 04:00:11;;;;;;;20.57;12.20;;;4.80;99.90;;;;;;5055641;28;20233;-67
2021/10/25 04:27:30;;;;;;;21.53;12.97;;;4.40;99.90;;;;;;5072931;28;20197;-66
2021/10/25 04:30:02;;;;;;;22.30;13.07;;;4.30;99.90;;;;;;5072987;28;20274;-66
2021/10/25 04:32:29;;;;;;;20.63;13.83;;;4.20;99.90;;;;;;5072810;28;20295;-66
2021/10/25 04:34:56;;;;;;;19.67;12.60;;;4.20;99.90;;;;;;5087746;28;20674;-67
2021/10/25 04:37:23;;;;;;;23.53;13.43;;;4.20;99.90;;;;;;5085399;28;20201;-66
2021/10/25 04:39:50;;;;;;;18.27;12.83;;;4.10;99.90;;;;;;5064708;28;20205;-66
2021/10/25 04:42:17;;;;;;;19.50;12.97;;;4.10;99.90;;;;;;5076396;28;20211;-66
2021/10/25 04:44:46;;;;;;;18.47;11.60;;;4.10;99.90;;;;;;5089877;28;20224;-66
2021/10/25 04:47:13;;;;;;;18.30;11.77;;;4.00;99.90;;;;;;5088910;28;20205;-66
2021/10/25 04:49:39;;;;;;;19.87;12.73;;;4.00;99.90;;;;;;5072293;28;20236;-67
2021/10/25 04:52:07;;;;;;;22.17;12.97;;;4.00;99.90;;;;;;5089562;28;20204;-65
2021/10/25 04:54:34;;;;;;;18.87;12.40;;;4.00;99.90;;;;;;5072193;28;20204;-66
2021/10/25 04:57:01;;;;;;;17.40;12.03;;;3.90;99.90;;;;;;5072168;28;20698;-65
2021/10/25 04:59:28;;;;;;;19.40;11.57;;;3.90;99.90;;;;;;5071257;28;20235;-66
2021/10/25 05:01:56;;;;;;;20.10;11.87;;;3.90;99.90;;;;;;5078402;28;20205;-67
2021/10/25 05:04:23;;;;;;;19.93;12.07;;;3.90;99.90;;;;;;5088775;28;20233;-67
2021/10/25 05:06:50;;;;;;;19.47;12.23;;;3.90;99.90;;;;;;5072821;28;20236;-67
2021/10/25 05:09:17;;;;;;;17.87;11.23;;;3.90;99.90;;;;;;5071508;28;20216;-67
2021/10/25 05:11:44;;;;;;;20.20;11.63;;;3.90;99.90;;;;;;5072077;28;20217;-67
2021/10/25 05:14:11;;;;;;;16.53;11.50;;;3.90;99.90;;;;;;5071980;28;20208;-66
2021/10/25 05:16:38;;;;;;;20.60;11.87;;;3.80;99.90;;;;;;5080310;28;20201;-66
2021/10/25 05:19:06;;;;;;;20.13;12.27;;;3.80;99.90;;;;;;5080029;28;20201;-67
2021/10/25 05:21:34;;;;;;;20.10;11.43;;;3.80;99.90;;;;;;5071498;28;20219;-66
2021/10/25 05:24:01;;;;;;;19.97;11.83;;;3.80;99.90;;;;;;5070906;28;20219;-65
2021/10/25 05:26:29;;;;;;;18.97;11.77;;;3.80;99.90;;;;;;5081327;28;20227;-65
2021/10/25 05:28:56;;;;;;;19.33;12.73;;;3.80;99.90;;;;;;5071186;28;20209;-66
2021/10/25 05:31:24;;;;;;;16.87;12.00;;;3.70;99.90;;;;;;5074754;28;20787;-67
2021/10/25 05:33:51;;;;;;;18.87;12.13;;;3.70;99.90;;;;;;5075851;28;20296;-65
2021/10/25 05:36:20;;;;;;;23.43;13.07;;;3.70;99.90;;;;;;5084531;28;20209;-65
2021/10/25 05:38:47;;;;;;;22.50;12.63;;;3.70;99.90;;;;;;5088609;28;20209;-66
2021/10/25 05:41:14;;;;;;;20.63;12.60;;;3.70;99.90;;;;;;5080935;28;20302;-66
2021/10/25 05:43:41;;;;;;;20.03;12.30;;;3.70;99.90;;;;;;5078820;28;20695;-65
2021/10/25 05:46:08;;;;;;;19.93;11.60;;;3.70;99.90;;;;;;5071455;28;20201;-67
2021/10/25 05:48:35;;;;;;;19.07;12.43;;;3.70;99.90;;;;;;5086932;28;20695;-65
2021/10/25 05:51:03;;;;;;;18.93;13.17;;;3.70;99.90;;;;;;5086829;28;20220;-66
2021/10/25 05:53:32;;;;;;;18.90;11.67;;;3.70;99.90;;;;;;5080203;28;20204;-66
2021/10/25 05:55:59;;;;;;;19.23;12.33;;;3.80;99.90;;;;;;5089746;28;20228;-66
2021/10/25 05:58:27;;;;;;;21.10;12.67;;;3.80;99.90;;;;;;5077357;28;20232;-67
2021/10/25 06:00:56;;;;;;;19.33;11.83;;;3.80;99.90;;;;;;5084682;28;20244;-66
2021/10/25 06:03:24;;;;;;;21.53;12.00;;;3.90;99.90;;;;;;5087678;28;20263;-71
2021/10/25 06:05:52;;;;;;;18.43;11.97;;;3.90;99.90;;;;;;5087793;28;20201;-71
2021/10/25 06:08:19;;;;;;;17.87;11.47;;;3.90;99.90;;;;;;5086582;28;20196;-71
2021/10/25 06:10:49;;;;;;;18.73;11.77;;;4.00;99.90;;;;;;5082896;28;20213;-70
2021/10/25 06:13:22;;;;;;;21.50;12.43;;;4.00;99.90;;;;;;5085148;28;20232;-71
2021/10/25 06:15:56;;;;;;;20.60;13.00;;;4.10;99.90;;;;;;5090571;28;20224;-70
2021/10/25 06:18:24;;;;;;;23.00;12.93;;;4.10;99.90;;;;;;5085535;28;20213;-71
2021/10/25 06:20:52;;;;;;;22.23;12.80;;;4.10;99.90;;;;;;5070967;28;20653;-70
2021/10/25 06:23:19;;;;;;;17.90;11.40;;;4.20;99.90;;;;;;5089912;28;20230;-69
2021/10/25 06:25:51;;;;;;;19.67;12.00;;;4.20;99.90;;;;;;5083564;28;20304;-70
2021/10/25 06:28:18;;;;;;;19.13;11.57;;;4.40;99.90;;;;;;5077720;28;20200;-70
2021/10/25 06:30:54;;;;;;;17.70;11.27;;;4.50;99.90;;;;;;5090147;28;20223;-67
2021/10/25 06:33:21;;;;;;;19.43;11.73;;;4.50;99.90;;;;;;5079152;28;20733;-72
2021/10/25 06:35:57;;;;;;;22.17;13.43;;;4.50;99.90;;;;;;5091657;28;20242;-73
2021/10/25 06:38:30;;;;;;;20.27;12.80;;;4.60;99.90;;;;;;5081423;28;20223;-69
2021/10/25 06:40:59;;;;;;;17.73;12.13;;;4.60;99.90;;;;;;5072178;28;20212;-69
2021/10/25 06:43:26;;;;;;;18.73;12.03;;;4.80;99.90;;;;;;5090108;28;20252;-70
2021/10/25 06:45:54;;;;;;;19.43;12.33;;;4.90;99.90;;;;;;5086848;28;20201;-70
2021/10/25 06:48:21;;;;;;;18.97;12.83;;;5.00;99.90;;;;;;5079499;28;20257;-69
2021/10/25 06:50:48;;;;;;;17.67;12.37;;;5.20;99.90;;;;;;5077865;28;20213;-70
2021/10/25 06:53:16;;;;;;;23.03;13.23;;;5.50;99.90;;;;;;5076582;28;20558;-69
2021/10/25 06:55:44;;;;;;;22.50;13.20;;;5.70;99.90;;;;;;5087825;28;20201;-71
2021/10/25 06:58:13;;;;;;;20.47;12.53;;;5.80;99.90;;;;;;5078888;28;20236;-71
2021/10/25 07:00:40;;;;;;;20.23;12.63;;;5.80;99.90;;;;;;5087324;28;20830;-70
2021/10/25 07:03:07;;;;;;;24.37;13.13;;;6.00;99.90;;;;;;5085400;28;20232;-70
2021/10/25 07:05:37;;;;;;;18.47;11.70;;;6.00;99.90;;;;;;5087591;28;20208;-71
2021/10/25 07:08:05;;;;;;;19.57;12.90;;;6.10;99.90;;;;;;5082720;28;20590;-69
2021/10/25 07:10:32;;;;;;;21.27;12.63;;;6.20;99.90;;;;;;5088570;28;20313;-71
2021/10/25 07:12:59;;;;;;;20.77;12.53;;;6.40;99.90;;;;;;5084604;28;20213;-70
2021/10/25 07:15:28;;;;;;;20.90;12.83;;;6.60;99.90;;;;;;5088842;28;20229;-70
2021/10/25 07:18:00;;;;;;;20.20;12.37;;;6.80;99.90;;;;;;5087263;28;20248;-69
2021/10/25 07:20:45;;;;;;;18.77;12.67;;;7.00;99.90;;;;;;5087674;28;20204;-72
2021/10/25 08:07:24;;;;;;;17.37;9.87;;;9.60;99.90;;;;;;5083304;28;20576;-68
2021/10/25 08:09:53;;;;;;;18.00;10.70;;;9.60;99.90;;;;;;5078540;28;20196;-73
2021/10/25 08:12:25;;;;;;;15.73;10.57;;;10.00;99.90;;;;;;5084483;28;20213;-71
2021/10/25 08:14:56;;;;;;;15.77;10.27;;;9.80;99.90;;;;;;5092550;28;20200;-68
2021/10/25 08:17:26;;;;;;;19.17;12.15;;;10.00;99.90;;;;;;5090300;28;20467;-68
2021/10/25 08:19:54;;;;;;;16.30;10.63;;;10.20;99.90;;;;;;5075003;28;20223;-70
2021/10/25 08:22:21;;;;;;;13.80;8.83;;;10.30;99.90;;;;;;5072368;28;20220;-71
2021/10/25 08:24:51;;;;;;;16.27;9.80;;;10.50;99.90;;;;;;5091508;28;20592;-69
2021/10/25 08:27:20;;;;;;;20.35;12.07;;;10.70;99.90;;;;;;5092187;28;20463;-71
2021/10/25 08:29:48;;;;;;;20.53;11.23;;;10.90;99.90;;;;;;5092195;28;20283;-71
2021/10/25 08:32:28;;;;;;;14.77;9.80;;;11.20;99.60;;;;;;5083329;28;20219;-72
2021/10/25 08:35:15;;;;;;;16.63;9.43;;;11.60;99.40;;;;;;5086038;28;20232;-70
2021/10/25 08:40:30;;;;;;;14.50;8.87;;;12.30;99.60;;;;;;5090636;28;20338;-70
2021/10/25 08:42:57;;;;;;;16.10;9.67;;;12.70;98.10;;;;;;5094101;28;20209;-71
2021/10/25 08:45:30;;;;;;;13.97;9.37;;;13.80;99.90;;;;;;5089337;28;20248;-70
2021/10/25 08:47:58;;;;;;;12.43;9.73;;;16.40;98.50;;;;;;5086309;28;20238;-71
2021/10/25 08:50:30;;;;;;;10.65;8.75;;;19.80;82.30;;;;;;5087195;28;20277;-71
2021/10/25 08:52:58;;;;;;;13.80;9.38;;;23.00;58.10;;;;;;5074613;28;20201;-72
2021/10/25 08:55:25;;;;;;;13.32;9.48;;;25.70;50.30;;;;;;5079729;28;20197;-71
2021/10/25 08:57:52;;;;;;;12.43;10.00;;;27.90;43.60;;;;;;5075696;28;20240;-70
2021/10/25 09:00:21;;;;;;;11.85;9.05;;;29.70;39.70;;;;;;5077600;28;20319;-70
2021/10/25 09:02:58;;;;;;;12.60;8.57;;;31.30;35.50;;;;;;5078882;28;20204;-70
2021/10/25 09:05:27;;;;;;;12.00;8.77;;;32.30;33.60;;;;;;5086826;28;20248;-70
2021/10/25 09:07:57;;;;;;;12.27;9.30;;;32.90;32.40;;;;;;5086066;28;20284;-72
2021/10/25 09:10:26;;;;;;;10.93;8.88;;;33.20;31.40;;;;;;5086861;28;20212;-70
2021/10/25 09:12:55;;;;;;;13.82;9.23;;;34.10;30.70;;;;;;5088640;28;20211;-70
2021/10/25 09:15:22;;;;;;;11.75;8.63;;;34.90;29.70;;;;;;5075232;28;20734;-70
2021/10/25 09:17:49;;;;;;;11.77;8.98;;;35.40;28.80;;;;;;5081722;28;20201;-70
2021/10/25 09:20:17;;;;;;;11.57;8.57;;;35.80;28.50;;;;;;5087670;28;20204;-70
2021/10/25 09:22:46;;;;;;;12.45;8.35;;;36.30;28.00;;;;;;5092888;28;20197;-71
2021/10/25 09:25:13;;;;;;;11.57;8.32;;;36.90;27.30;;;;;;5081029;28;20231;-71
2021/10/25 09:27:44;;;;;;;13.32;8.27;;;37.40;27.20;;;;;;5090509;28;20205;-67
2021/10/25 09:30:14;;;;;;;10.20;7.70;;;37.90;26.30;;;;;;5088937;28;20692;-66
2021/10/25 09:32:44;;;;;;;10.38;8.05;;;38.70;26.10;;;;;;5075256;28;20212;-66
2021/10/25 09:35:20;;;;;;;12.95;8.43;;;39.30;25.50;;;;;;5083516;28;20565;-70
2021/10/25 09:37:56;;;;;;;11.90;8.25;;;39.40;25.20;;;;;;5078553;28;20262;-67
2021/10/25 09:40:29;;;;;;;11.00;7.90;;;39.30;24.80;;;;;;5085544;28;20656;-68
2021/10/25 09:43:21;;;;;;;11.10;8.77;;;39.10;24.80;;;;;;5076996;28;20213;-68
2021/10/25 09:46:02;;;;;;;12.27;8.85;;;39.20;24.90;;;;;;5079655;28;20217;-67
2021/10/25 09:51:14;;;;;;;13.57;8.52;;;40.10;24.20;;;;;;5080533;28;20242;-67
2021/10/25 09:53:45;;;;;;;11.75;7.90;;;40.30;24.30;;;;;;5079762;28;20212;-66
2021/10/25 09:56:15;;;;;;;11.23;8.07;;;40.30;23.90;;;;;;5087463;28;20297;-67
2021/10/25 09:58:48;;;;;;;9.75;7.88;;;40.40;23.90;;;;;;5078789;28;20205;-67
2021/10/25 10:01:20;;;;;;;11.00;9.00;;;40.70;23.60;;;;;;5090050;28;20212;-68
2021/10/25 10:03:48;;;;;;;11.23;8.57;;;41.20;23.70;;;;;;5091196;28;20215;-67
2021/10/25 10:06:15;;;;;;;10.38;7.95;;;41.50;23.20;;;;;;5078542;28;20304;-66
2021/10/25 10:08:44;;;;;;;9.95;8.25;;;41.60;23.20;;;;;;5074907;28;20211;-71
2021/10/25 10:11:12;;;;;;;10.38;8.32;;;41.80;23.00;;;;;;5075466;28;20205;-67
2021/10/25 10:13:43;;;;;;;14.30;8.68;;;42.60;22.70;;;;;;5075296;28;20209;-66
2021/10/25 10:16:10;;;;;;;9.88;7.97;;;42.90;22.40;;;;;;5080547;28;20208;-66
2021/10/25 10:18:43;;;;;;;16.13;8.98;;;43.40;22.20;;;;;;5073766;28;20209;-67
2021/10/25 10:21:12;;;;;;;11.23;8.25;;;43.50;22.00;;;;;;5076817;28;20207;-68
2021/10/25 10:23:42;;;;;;;9.82;7.88;;;43.40;21.90;;;;;;5081786;28;20204;-67
2021/10/25 10:26:15;;;;;;;9.35;7.93;;;43.70;22.00;;;;;;5091842;28;20239;-67
2021/10/25 10:28:44;;;;;;;11.70;7.22;;;43.40;21.70;;;;;;5087570;28;20287;-67
2021/10/25 10:31:15;;;;;;;10.07;8.10;;;43.60;21.70;;;;;;5086626;28;20212;-67
2021/10/25 10:33:44;;;;;;;10.60;7.70;;;43.90;21.60;;;;;;5088945;28;20226;-67
2021/10/25 10:36:13;;;;;;;9.70;8.13;;;44.00;21.50;;;;;;5087339;28;20204;-67
2021/10/25 10:38:50;;;;;;;12.02;9.13;;;43.80;21.40;;;;;;5090455;28;20255;-68
2021/10/25 10:41:22;;;;;;;10.65;8.60;;;43.60;21.70;;;;;;5089870;28;20283;-75
2021/10/25 10:44:07;;;;;;;11.23;7.80;;;44.00;21.60;;;;;;5088966;28;20231;-68
2021/10/25 10:46:48;;;;;;;10.65;7.97;;;44.70;21.30;;;;;;5085957;28;20193;-67
2021/10/25 10:49:28;;;;;;;9.57;8.05;;;45.20;20.90;;;;;;5080593;28;20207;-67
2021/10/25 10:52:20;;;;;;;11.55;9.38;;;45.60;21.00;;;;;;5088767;28;20208;-67
2021/10/25 10:54:59;;;;;;;13.77;8.25;;;46.20;20.70;;;;;;5089916;28;20196;-67
2021/10/25 11:00:22;;;;;;;10.75;7.78;;;45.70;20.50;;;;;;5083300;28;20243;-70
2021/10/25 11:02:51;;;;;;;9.38;7.25;;;45.80;20.40;;;;;;5095463;28;20199;-70
2021/10/25 11:05:28;;;;;;;8.63;7.63;;;45.80;20.30;;;;;;5090486;28;20227;-70
2021/10/25 11:08:04;;;;;;;9.13;7.45;;;45.80;20.30;;;;;;5077565;28;20250;-69
2021/10/25 11:10:32;;;;;;;10.23;7.38;;;46.50;20.20;;;;;;5084182;28;20545;-70
2021/10/25 11:13:05;;;;;;;9.45;8.05;;;46.50;19.90;;;;;;5096413;28;20652;-71
2021/10/25 11:15:37;;;;;;;11.40;7.75;;;46.10;19.90;;;;;;5096876;28;20598;-71
2021/10/25 11:18:04;;;;;;;10.27;7.18;;;46.10;20.10;;;;;;5088157;28;20208;-70
2021/10/25 11:20:32;;;;;;;10.18;7.30;;;46.20;20.00;;;;;;5079864;28;20204;-70
2021/10/25 11:23:07;;;;;;;7.80;7.00;;;46.40;19.90;;;;;;5083073;28;20634;-66
2021/10/25 11:25:42;;;;;;;11.65;7.70;;;46.10;19.90;;;;;;5078609;28;20222;-67
2021/10/25 11:28:20;;;;;;;8.15;7.10;;;45.70;19.90;;;;;;5088046;28;20612;-67
2021/10/25 11:30:48;;;;;;;9.30;7.80;;;45.20;19.80;;;;;;5082875;28;20291;-67
2021/10/25 11:33:20;;;;;;;11.20;7.53;;;45.00;20.40;;;;;;5080576;28;20212;-67
2021/10/25 11:35:50;;;;;;;8.63;7.68;;;45.20;20.10;;;;;;5074515;28;20208;-69
2021/10/25 11:38:18;;;;;;;9.18;7.88;;;45.40;20.20;;;;;;5083797;28;20236;-68
2021/10/25 11:40:45;;;;;;;10.57;7.72;;;45.60;20.50;;;;;;5090254;28;20663;-67
2021/10/25 11:43:12;;;;;;;9.27;7.80;;;45.90;20.10;;;;;;5082613;28;20720;-67
2021/10/25 11:45:41;;;;;;;9.88;8.10;;;45.20;20.20;;;;;;5086781;28;20230;-70
2021/10/25 11:48:08;;;;;;;10.95;7.57;;;44.70;20.20;;;;;;5084310;28;20292;-69
2021/10/25 11:50:37;;;;;;;11.85;8.10;;;44.70;20.20;;;;;;5087169;28;20199;-70
2021/10/25 11:53:07;;;;;;;10.50;7.75;;;45.10;20.00;;;;;;5092793;28;20692;-72
2021/10/25 11:55:36;;;;;;;10.40;7.60;;;45.00;20.10;;;;;;5086652;28;20258;-70
2021/10/25 11:58:05;;;;;;;8.63;7.40;;;44.50;20.10;;;;;;5083747;28;20211;-72
2021/10/25 12:00:35;;;;;;;8.27;7.47;;;43.30;20.50;;;;;;5090891;28;20236;-71
2021/10/25 12:03:11;;;;;;;9.13;7.13;;;42.30;21.00;;;;;;5091233;28;20574;-71
2021/10/25 12:05:39;;;;;;;9.27;7.53;;;40.20;21.00;;;;;;5095624;28;20220;-70
2021/10/25 12:08:10;;;;;;;12.25;8.00;;;37.30;22.30;;;;;;5086635;28;20453;-71
2021/10/25 12:10:39;;;;;;;11.20;7.80;;;34.20;24.00;;;;;;5100979;28;20280;-70
2021/10/25 12:13:10;;;;;;;9.98;7.50;;;31.20;26.20;;;;;;5102923;28;20645;-69
2021/10/25 12:15:40;;;;;;;10.50;7.88;;;28.50;28.80;;;;;;5090565;28;20215;-70
2021/10/25 12:18:08;;;;;;;9.70;7.03;;;26.10;30.30;;;;;;5083730;28;20299;-70
2021/10/25 12:20:38;;;;;;;10.10;7.55;;;24.20;32.60;;;;;;5092386;28;20576;-71
2021/10/25 12:23:09;;;;;;;11.48;7.90;;;22.60;34.50;;;;;;5094278;28;20207;-71
2021/10/25 12:25:36;;;;;;;11.10;8.05;;;21.20;36.60;;;;;;5085370;28;20270;-70
2021/10/25 12:28:10;;;;;;;12.00;8.15;;;19.90;38.40;;;;;;5086114;28;20213;-70
2021/10/25 12:30:37;;;;;;;13.98;8.13;;;18.90;40.50;;;;;;5080786;28;20243;-69
2021/10/25 12:33:04;;;;;;;10.55;7.30;;;18.10;42.00;;;;;;5089495;28;20201;-69
2021/10/25 12:35:33;;;;;;;12.93;8.43;;;17.60;43.30;;;;;;5093044;28;20246;-71
2021/10/25 12:38:04;;;;;;;10.73;7.37;;;17.20;44.40;;;;;;5092177;28;20258;-71
2021/10/25 12:40:38;;;;;;;8.93;6.90;;;16.90;45.30;;;;;;5090422;28;20227;-67
2021/10/25 12:43:06;;;;;;;11.47;6.87;;;16.60;46.10;;;;;;5090545;28;20197;-70
2021/10/25 12:45:39;;;;;;;10.50;6.13;;;16.30;46.60;;;;;;5084605;28;20224;-69
2021/10/25 12:48:07;;;;;;;9.90;6.83;;;15.80;47.50;;;;;;5080810;28;20686;-69
2021/10/25 12:50:36;;;;;;;14.40;6.93;;;15.50;48.60;;;;;;5078968;28;20287;-69
2021/10/25 12:53:08;;;;;;;11.83;6.83;;;15.20;49.30;;;;;;5089613;28;20284;-70
2021/10/25 12:55:37;;;;;;;12.33;7.00;;;15.00;50.10;;;;;;5086706;28;20688;-69
2021/10/25 12:58:08;;;;;;;10.23;5.87;;;14.80;50.50;;;;;;5078239;28;20667;-68
2021/10/25 13:00:36;;;;;;;9.27;6.27;;;14.60;51.00;;;;;;5081791;28;20296;-69
2021/10/25 13:03:09;;;;;;;11.40;6.73;;;14.30;51.60;;;;;;5080273;28;20209;-70
2021/10/25 13:05:38;;;;;;;10.13;5.87;;;14.10;52.10;;;;;;5088650;28;20303;-68
2021/10/25 13:08:08;;;;;;;11.27;6.27;;;13.90;52.60;;;;;;5090802;28;20333;-71
2021/10/25 13:10:38;;;;;;;9.53;6.13;;;13.90;53.20;;;;;;5092574;28;20204;-69
2021/10/25 13:13:07;;;;;;;9.47;6.10;;;13.70;53.80;;;;;;5093148;28;20205;-70
2021/10/25 13:15:35;;;;;;;9.70;5.93;;;13.50;54.10;;;;;;5087294;28;20204;-70
2021/10/25 13:18:04;;;;;;;11.53;6.13;;;13.40;54.60;;;;;;5079815;28;20613;-69
2021/10/25 13:20:46;;;;;;;11.80;6.90;;;13.20;55.00;;;;;;5091434;28;20204;-68
2021/10/25 13:23:14;;;;;;;11.13;5.90;;;13.20;55.60;;;;;;5085465;28;20220;-69
2021/10/25 13:25:43;;;;;;;9.67;5.73;;;13.10;56.00;;;;;;5100162;28;20232;-70
2021/10/25 13:28:10;;;;;;;10.07;5.93;;;12.90;56.40;;;;;;5091375;28;20204;-69
2021/10/25 13:30:37;;;;;;;7.80;5.50;;;12.80;56.70;;;;;;5089034;28;20209;-69
2021/10/25 13:33:05;;;;;;;8.20;5.90;;;12.80;56.90;;;;;;5092480;28;20204;-70
2021/10/25 13:35:32;;;;;;;10.13;5.80;;;12.80;57.30;;;;;;5083184;28;20235;-70
2021/10/25 13:37:58;;;;;;;9.93;5.83;;;12.60;57.70;;;;;;5083103;28;20213;-69
2021/10/25 13:40:30;;;;;;;11.13;6.10;;;12.60;58.00;;;;;;5089617;28;20232;-70
2021/10/25 13:42:59;;;;;;;12.03;6.30;;;12.50;58.40;;;;;;5091514;28;20239;-70
2021/10/25 13:45:26;;;;;;;10.97;5.80;;;12.50;58.90;;;;;;5082502;28;20277;-69
2021/10/25 13:47:53;;;;;;;11.43;6.70;;;12.40;59.20;;;;;;5088546;28;20213;-70
2021/10/25 13:50:22;;;;;;;10.47;5.90;;;12.40;59.70;;;;;;5086589;28;20205;-70
2021/10/25 13:52:49;;;;;;;10.03;5.70;;;12.40;60.00;;;;;;5075692;28;20736;-72
2021/10/25 13:55:15;;;;;;;10.90;6.53;;;12.30;60.30;;;;;;5072677;28;20577;-70
2021/10/25 13:57:46;;;;;;;8.33;5.90;;;12.20;60.60;;;;;;5075638;28;20255;-69
2021/10/25 14:00:15;;;;;;;13.55;6.82;;;12.20;61.30;;;;;;5067547;28;20516;-71
2021/10/25 14:02:43;;;;;;;14.87;6.60;;;12.70;62.30;;;;;;5068035;28;20197;-70
2021/10/25 14:05:12;;;;;;;10.67;6.30;;;12.20;62.10;;;;;;5062230;28;20201;-69
2021/10/25 14:07:39;;;;;;;11.93;6.37;;;12.20;62.10;;;;;;5062706;28;20237;-68